createdAt,value
2023-03-22T00:00:00.255Z,5.63
2023-03-22T00:02:30.730Z,6.07
2023-03-22T00:05:00.557Z,5.70
2023-03-22T00:07:31.687Z,5.57
2023-03-22T00:10:01.509Z,5.50
2023-03-22T00:12:31.761Z,5.03
2023-03-22T00:19:10.280Z,4.90
2023-03-22T00:21:42.701Z,4.60
2023-03-22T00:24:12.591Z,4.50
2023-03-22T00:26:42.429Z,4.33
2023-03-22T00:29:12.389Z,3.77
2023-03-22T00:31:42.175Z,4.23
2023-03-22T00:34:14.349Z,4.20
2023-03-22T00:36:46.801Z,4.40
2023-03-22T00:39:16.631Z,4.40
2023-03-22T00:41:46.538Z,4.70
2023-03-22T00:44:16.322Z,4.80
2023-03-22T00:46:46.183Z,4.40
2023-03-22T00:49:15.985Z,4.90
2023-03-22T00:51:48.438Z,5.13
2023-03-22T00:54:18.178Z,4.57
2023-03-22T00:56:50.021Z,5.07
2023-03-22T00:59:22.673Z,5.17
2023-03-22T01:01:52.396Z,4.90
2023-03-22T01:04:26.428Z,5.30
2023-03-22T01:07:02.142Z,4.57
2023-03-22T01:09:33.959Z,4.80
2023-03-22T01:12:04.773Z,4.97
2023-03-22T01:14:34.595Z,5.13
2023-03-22T01:17:04.341Z,4.47
2023-03-22T01:19:34.221Z,5.33
2023-03-22T01:22:06.754Z,5.07
2023-03-22T01:24:36.592Z,4.70
2023-03-22T01:27:06.531Z,4.87
2023-03-22T01:29:36.253Z,4.73
2023-03-22T01:32:06.535Z,4.83
2023-03-22T01:34:36.265Z,4.87
2023-03-22T01:37:08.648Z,4.70
2023-03-22T01:39:38.456Z,5.27
2023-03-22T01:42:22.455Z,5.20
2023-03-22T01:45:27.622Z,5.43
2023-03-22T01:48:00.423Z,5.03
2023-03-22T01:50:31.399Z,5.40
2023-03-22T01:53:05.363Z,5.60
2023-03-22T01:55:36.208Z,5.47
2023-03-22T01:58:07.431Z,5.17
2023-03-22T02:00:37.656Z,5.17
2023-03-22T02:03:09.179Z,5.13
2023-03-22T02:05:39.477Z,5.37
2023-03-22T02:08:15.211Z,5.30
2023-03-22T02:10:45.407Z,5.83
2023-03-22T02:13:28.547Z,5.80
2023-03-22T02:16:08.757Z,5.67
2023-03-22T02:18:55.989Z,5.63
2023-03-22T02:21:52.108Z,5.60
2023-03-22T02:25:12.797Z,5.43
2023-03-22T02:28:06.040Z,5.53
2023-03-22T02:31:08.477Z,5.57
2023-03-22T02:34:14.771Z,5.10
2023-03-22T02:37:08.197Z,5.47
2023-03-22T02:39:50.504Z,5.63
2023-03-22T02:42:38.786Z,5.67
2023-03-22T02:45:16.432Z,5.67
2023-03-22T02:47:55.819Z,6.07
2023-03-22T02:50:29.817Z,5.20
2023-03-22T02:53:07.104Z,6.30
2023-03-22T02:55:44.528Z,5.80
2023-03-22T02:58:19.390Z,6.00
2023-03-22T03:00:53.233Z,6.27
2023-03-22T03:03:25.718Z,6.13
2023-03-22T03:05:59.548Z,5.10
2023-03-22T03:08:31.067Z,6.13
2023-03-22T03:11:03.488Z,5.63
2023-03-22T03:13:33.271Z,5.73
2023-03-22T03:16:07.877Z,5.43
2023-03-22T03:18:48.490Z,5.70
2023-03-22T03:21:30.289Z,5.73
2023-03-22T03:24:08.343Z,5.40
2023-03-22T03:26:48.767Z,6.10
2023-03-22T03:29:28.840Z,5.30
2023-03-22T03:32:07.552Z,6.20
2023-03-22T03:34:45.638Z,5.90
2023-03-22T03:37:20.264Z,5.60
2023-03-22T03:39:55.126Z,5.57
2023-03-22T03:42:30.030Z,5.60
2023-03-22T03:45:00.434Z,5.83
2023-03-22T03:47:34.274Z,6.00
2023-03-22T03:50:04.584Z,5.83
2023-03-22T03:52:34.552Z,5.13
2023-03-22T03:55:04.691Z,5.90
2023-03-22T03:57:37.142Z,5.80
2023-03-22T04:00:10.754Z,6.67
2023-03-22T04:02:40.537Z,6.13
2023-03-22T04:05:12.368Z,6.00
2023-03-22T04:07:42.879Z,6.60
2023-03-22T04:10:13.338Z,5.97
2023-03-22T04:12:46.036Z,6.13
2023-03-22T04:15:15.863Z,5.70
2023-03-22T04:17:46.659Z,5.53
2023-03-22T04:20:16.730Z,5.77
2023-03-22T04:22:47.004Z,6.40
2023-03-22T04:25:18.315Z,6.53
2023-03-22T04:27:51.579Z,6.23
2023-03-22T04:30:22.928Z,6.03
2023-03-22T04:32:53.060Z,6.20
2023-03-22T04:35:22.873Z,6.17
2023-03-22T04:37:53.905Z,5.73
2023-03-22T04:40:26.575Z,6.63
2023-03-22T04:42:59.388Z,6.00
2023-03-22T04:45:32.541Z,5.67
2023-03-22T04:48:02.417Z,6.30
2023-03-22T04:50:32.170Z,5.50
2023-03-22T04:53:02.121Z,6.07
2023-03-22T04:55:31.863Z,5.70
2023-03-22T04:58:04.242Z,5.67
2023-03-22T05:00:33.970Z,6.17
2023-03-22T05:03:04.237Z,4.40
2023-03-22T05:05:34.087Z,5.87
2023-03-22T05:08:03.805Z,5.63
2023-03-22T05:10:33.807Z,5.47
2023-03-22T05:13:06.156Z,5.20
2023-03-22T05:15:35.891Z,4.87
2023-03-22T05:18:05.849Z,5.10
2023-03-22T05:20:35.629Z,4.50
2023-03-22T05:23:05.494Z,5.30
2023-03-22T05:25:35.579Z,5.60
2023-03-22T05:28:08.959Z,5.30
2023-03-22T05:30:38.915Z,5.30
2023-03-22T05:33:08.817Z,5.27
2023-03-22T05:35:41.631Z,5.00
2023-03-22T05:38:12.004Z,5.20
2023-03-22T05:40:42.019Z,5.47
2023-03-22T05:43:15.059Z,4.53
2023-03-22T05:45:45.880Z,5.17
2023-03-22T05:48:15.783Z,4.53
2023-03-22T05:50:45.832Z,4.70
2023-03-22T05:53:15.646Z,5.37
2023-03-22T05:55:45.445Z,4.47
2023-03-22T05:58:19.461Z,4.80
2023-03-22T06:00:50.037Z,4.30
2023-03-22T06:03:20.143Z,5.87
2023-03-22T06:05:50.856Z,4.87
2023-03-22T06:08:20.675Z,4.80
2023-03-22T06:10:52.283Z,4.33
2023-03-22T06:13:25.005Z,4.30
2023-03-22T06:15:54.841Z,4.30
2023-03-22T06:18:24.713Z,4.57
2023-03-22T06:20:54.510Z,4.33
2023-03-22T06:23:24.488Z,4.70
2023-03-22T06:25:54.234Z,3.63
2023-03-22T06:28:30.067Z,3.50
2023-03-22T06:30:59.902Z,4.60
2023-03-22T06:33:30.045Z,3.83
2023-03-22T06:36:00.920Z,3.37
2023-03-22T06:38:30.647Z,3.97
2023-03-22T06:41:00.377Z,4.03
2023-03-22T06:43:32.881Z,4.00
2023-03-22T06:46:02.695Z,3.33
2023-03-22T06:48:32.972Z,3.67
2023-03-22T06:51:02.729Z,3.50
2023-03-22T06:53:32.524Z,3.40
2023-03-22T06:56:02.380Z,3.30
2023-03-22T06:58:34.889Z,3.07
2023-03-22T07:01:04.690Z,2.97
2023-03-22T07:03:34.460Z,3.13
2023-03-22T07:06:05.086Z,3.13
2023-03-22T07:08:35.139Z,3.27
2023-03-22T07:11:04.998Z,3.27
2023-03-22T07:13:37.632Z,3.37
2023-03-22T07:16:08.396Z,2.63
2023-03-22T07:18:38.371Z,3.33
2023-03-22T07:21:08.722Z,3.30
2023-03-22T07:23:38.692Z,2.97
2023-03-22T07:26:09.422Z,3.00
2023-03-22T07:28:44.617Z,2.40
2023-03-22T07:31:15.761Z,3.70
2023-03-22T07:33:45.495Z,3.27
2023-03-22T07:36:15.684Z,3.20
2023-03-22T07:38:45.549Z,2.90
2023-03-22T07:41:15.579Z,2.53
2023-03-22T07:43:55.467Z,3.00
2023-03-22T07:46:28.631Z,2.60
2023-03-22T07:48:58.413Z,2.67
2023-03-22T07:51:28.410Z,2.83
2023-03-22T07:53:58.343Z,2.60
2023-03-22T07:56:28.161Z,2.93
2023-03-22T07:59:00.699Z,2.77
2023-03-22T08:01:30.666Z,3.10
2023-03-22T08:04:00.599Z,2.60
2023-03-22T08:06:32.915Z,2.60
2023-03-22T08:09:02.780Z,2.20
2023-03-22T08:11:32.875Z,1.93
2023-03-22T08:14:05.619Z,1.13
2023-03-22T08:16:35.642Z,2.20
2023-03-22T08:19:05.700Z,2.10
2023-03-22T08:21:38.191Z,1.77
2023-03-22T08:24:08.117Z,2.07
2023-03-22T08:26:39.534Z,2.23
2023-03-22T08:29:11.845Z,1.50
2023-03-22T08:31:41.674Z,1.00
2023-03-22T08:34:11.497Z,1.57
2023-03-22T08:36:41.935Z,1.90
2023-03-22T08:39:12.810Z,1.43
2023-03-22T08:41:42.944Z,1.80
2023-03-22T08:44:15.427Z,1.27
2023-03-22T08:46:45.266Z,1.60
2023-03-22T08:49:15.084Z,1.70
2023-03-22T08:51:45.310Z,1.90
2023-03-22T08:54:18.428Z,1.87
2023-03-22T08:56:48.446Z,1.67
2023-03-22T08:59:21.097Z,1.60
2023-03-22T09:01:50.979Z,2.10
2023-03-22T09:04:21.027Z,1.60
2023-03-22T09:06:50.940Z,1.80
2023-03-22T09:09:20.890Z,1.90
2023-03-22T09:11:50.711Z,1.87
2023-03-22T09:14:23.172Z,1.97
2023-03-22T09:16:52.933Z,1.97
2023-03-22T09:19:23.018Z,1.50
2023-03-22T09:21:55.752Z,2.23
2023-03-22T09:24:25.560Z,1.60
2023-03-22T09:26:55.298Z,1.70
2023-03-22T09:29:27.813Z,1.83
2023-03-22T09:32:00.094Z,1.60
2023-03-22T09:34:29.974Z,1.83
2023-03-22T09:37:02.433Z,1.93
2023-03-22T09:39:32.344Z,1.77
2023-03-22T09:42:05.249Z,1.80
2023-03-22T09:44:42.070Z,2.00
2023-03-22T09:47:20.437Z,1.90
2023-03-22T09:49:54.234Z,1.87
2023-03-22T09:52:24.699Z,1.20
2023-03-22T09:54:54.555Z,1.60
2023-03-22T09:57:29.443Z,1.97
2023-03-22T10:00:11.980Z,2.00
2023-03-22T10:02:53.844Z,2.17
2023-03-22T10:05:34.696Z,1.93
2023-03-22T10:08:16.945Z,2.10
2023-03-22T10:10:47.006Z,2.17
2023-03-22T10:13:23.468Z,2.17
2023-03-22T10:15:59.262Z,2.10
2023-03-22T10:18:32.961Z,1.80
2023-03-22T10:21:05.111Z,1.63
2023-03-22T10:23:43.527Z,1.90
2023-03-22T10:26:21.395Z,2.07
2023-03-22T10:28:57.768Z,2.30
2023-03-22T10:31:31.498Z,1.03
2023-03-22T10:34:05.500Z,2.50
2023-03-22T10:36:39.792Z,2.03
2023-03-22T10:39:16.973Z,1.70
2023-03-22T10:41:47.881Z,1.90
2023-03-22T10:44:21.264Z,1.77
2023-03-22T10:46:55.190Z,1.60
2023-03-22T10:49:31.736Z,1.80
2023-03-22T10:52:06.601Z,1.80
2023-03-22T10:54:36.833Z,1.63
2023-03-22T10:57:06.805Z,1.37
2023-03-22T10:59:48.105Z,1.40
2023-03-22T11:02:26.838Z,1.73
2023-03-22T11:04:59.298Z,1.37
2023-03-22T11:07:36.117Z,1.70
2023-03-22T11:10:21.910Z,1.53
2023-03-22T11:12:55.108Z,1.33
2023-03-22T11:15:34.131Z,1.50
2023-03-22T11:18:11.333Z,1.40
2023-03-22T11:20:44.285Z,0.93
2023-03-22T11:23:18.644Z,2.30
2023-03-22T11:25:50.937Z,1.83
2023-03-22T11:28:23.292Z,1.37
2023-03-22T11:31:03.163Z,1.30
2023-03-22T11:33:36.618Z,1.30
2023-03-22T11:36:18.521Z,1.30
2023-03-22T11:38:48.992Z,2.00
2023-03-22T11:41:25.529Z,1.50
2023-03-22T11:43:58.560Z,1.37
2023-03-22T11:46:28.669Z,1.70
2023-03-22T11:49:05.989Z,1.40
2023-03-22T11:51:38.068Z,1.60
2023-03-22T11:54:13.835Z,2.10
2023-03-22T11:56:46.443Z,2.10
2023-03-22T11:59:18.515Z,1.30
2023-03-22T12:01:53.105Z,1.70
2023-03-22T12:04:33.503Z,1.90
2023-03-22T12:07:06.256Z,1.40
2023-03-22T12:09:42.933Z,2.03
2023-03-22T12:12:18.052Z,1.90
2023-03-22T12:14:55.761Z,1.50
2023-03-22T12:17:33.436Z,1.70
2023-03-22T12:20:18.570Z,2.13
2023-03-22T12:22:53.955Z,1.67
2023-03-22T12:25:27.630Z,1.20
2023-03-22T12:27:59.813Z,1.87
2023-03-22T12:30:33.413Z,2.27
2023-03-22T12:33:07.515Z,2.83
2023-03-22T12:35:44.971Z,1.30
2023-03-22T12:38:27.883Z,1.50
2023-03-22T12:41:00.497Z,2.77
2023-03-22T12:43:49.646Z,2.10
2023-03-22T12:46:23.935Z,1.87
2023-03-22T12:48:56.691Z,2.97
2023-03-22T12:51:29.242Z,1.73
2023-03-22T12:54:02.180Z,1.70
2023-03-22T12:56:39.498Z,1.50
2023-03-22T12:59:17.356Z,2.33
2023-03-22T13:01:52.278Z,1.87
2023-03-22T13:04:34.927Z,1.60
2023-03-22T13:07:19.773Z,1.47
2023-03-22T13:09:50.728Z,1.93
2023-03-22T13:12:33.265Z,1.27
2023-03-22T13:15:34.787Z,1.33
2023-03-22T13:18:25.762Z,1.53
2023-03-22T13:21:15.456Z,1.47
2023-03-22T13:24:05.289Z,1.37
2023-03-22T13:26:39.955Z,1.70
2023-03-22T13:29:18.725Z,1.47
2023-03-22T13:31:58.461Z,2.47
2023-03-22T13:34:40.945Z,1.80
2023-03-22T13:37:25.426Z,1.50
2023-03-22T13:40:02.235Z,1.90
2023-03-22T13:42:38.563Z,1.40
2023-03-22T13:45:12.512Z,2.17
2023-03-22T13:47:47.894Z,1.77
2023-03-22T13:50:22.077Z,1.57
2023-03-22T13:53:00.145Z,1.60
2023-03-22T13:55:51.537Z,1.80
2023-03-22T13:58:41.330Z,1.53
2023-03-22T14:01:18.700Z,1.37
2023-03-22T14:03:52.297Z,1.50
2023-03-22T14:06:27.401Z,1.80
2023-03-22T14:09:06.236Z,1.47
2023-03-22T14:11:46.888Z,1.57
2023-03-22T14:14:22.293Z,1.80
2023-03-22T14:16:56.579Z,1.60
2023-03-22T14:19:33.641Z,1.67
2023-03-22T14:52:38.935Z,1.80
2023-03-22T14:55:12.769Z,1.70
2023-03-22T14:57:51.167Z,1.37
2023-03-22T15:00:22.988Z,1.27
2023-03-22T15:02:58.705Z,1.47
2023-03-22T15:05:30.929Z,1.90
2023-03-22T15:08:10.237Z,1.93
2023-03-22T15:10:41.132Z,1.87
2023-03-22T15:13:15.179Z,2.30
2023-03-22T15:15:47.616Z,2.77
2023-03-22T15:18:21.282Z,2.43
2023-03-22T15:20:53.932Z,2.03
2023-03-22T15:23:26.539Z,1.97
2023-03-22T15:25:58.975Z,1.57
2023-03-22T15:28:35.966Z,1.83
2023-03-22T15:31:07.328Z,1.40
2023-03-22T15:33:40.362Z,1.57
2023-03-22T15:36:11.235Z,1.20
2023-03-22T15:38:46.781Z,1.53
2023-03-22T15:41:28.889Z,1.53
2023-03-22T15:44:08.388Z,1.53
2023-03-22T15:46:52.718Z,1.73
2023-03-22T15:49:25.027Z,1.90
2023-03-22T15:51:55.029Z,1.73
2023-03-22T15:54:34.338Z,1.70
2023-03-22T15:57:21.185Z,1.70
2023-03-22T15:59:56.929Z,1.53
2023-03-22T16:02:29.933Z,1.47
2023-03-22T16:05:00.751Z,1.67
2023-03-22T16:07:32.647Z,2.30
2023-03-22T16:10:02.566Z,1.73
2023-03-22T16:12:32.471Z,1.83
2023-03-22T16:15:09.109Z,1.87
2023-03-22T16:17:39.019Z,2.10
2023-03-22T16:20:10.323Z,1.97
2023-03-22T16:22:40.866Z,1.23
2023-03-22T16:25:16.440Z,1.00
2023-03-22T16:27:46.432Z,1.30
2023-03-22T16:30:20.219Z,1.27
2023-03-22T16:32:50.680Z,1.30
2023-03-22T16:35:24.060Z,1.40
2023-03-22T16:37:54.859Z,1.30
2023-03-22T16:40:29.650Z,1.10
2023-03-22T16:43:00.133Z,1.00
2023-03-22T16:45:34.754Z,1.47
2023-03-22T16:48:04.995Z,1.60
2023-03-22T16:50:38.254Z,1.30
2023-03-22T16:53:08.298Z,1.93
2023-03-22T16:55:39.383Z,1.30
2023-03-22T16:58:11.415Z,1.30
2023-03-22T17:00:44.231Z,1.27
2023-03-22T17:03:19.859Z,0.93
2023-03-22T17:05:49.841Z,1.60
2023-03-22T17:08:22.999Z,1.10
2023-03-22T17:10:53.303Z,1.10
2023-03-22T17:13:23.511Z,1.10
2023-03-22T17:15:56.262Z,1.27
2023-03-22T17:18:26.164Z,1.30
2023-03-22T17:20:56.286Z,1.17
2023-03-22T17:23:26.439Z,1.20
2023-03-22T17:25:56.414Z,1.40
2023-03-22T17:28:28.103Z,1.40
2023-03-22T17:31:02.791Z,1.40
2023-03-22T17:33:36.203Z,1.70
2023-03-22T17:36:06.283Z,1.60
2023-03-22T17:38:45.016Z,1.67
2023-03-22T17:41:26.262Z,1.60
2023-03-22T17:43:56.529Z,1.67
2023-03-22T17:47:02.436Z,1.57
2023-03-22T17:49:19.791Z,1.60
2023-03-22T17:51:49.756Z,1.43
2023-03-22T17:54:52.528Z,1.40
2023-03-22T17:57:43.520Z,1.10
2023-03-22T18:00:02.549Z,1.13
2023-03-22T18:02:35.106Z,1.13
2023-03-22T18:05:05.378Z,1.30
2023-03-22T18:07:35.587Z,1.50
2023-03-22T18:10:07.946Z,1.57
2023-03-22T18:12:38.702Z,1.33
2023-03-22T18:15:12.608Z,1.43
2023-03-22T18:17:46.217Z,1.13
2023-03-22T18:20:39.810Z,1.37
2023-03-22T18:23:10.005Z,1.47
2023-03-22T18:25:42.152Z,1.23
2023-03-22T18:28:13.371Z,1.40
2023-03-22T18:30:43.695Z,1.20
2023-03-22T18:33:16.298Z,1.70
2023-03-22T18:35:46.307Z,1.50
2023-03-22T18:38:35.327Z,1.90
2023-03-22T18:41:34.401Z,1.50
2023-03-22T18:44:01.513Z,1.63
2023-03-22T18:46:31.464Z,1.67
2023-03-22T18:49:04.310Z,1.60
2023-03-22T18:51:50.913Z,1.60
2023-03-22T18:54:24.235Z,1.80
2023-03-22T18:56:54.331Z,1.97
2023-03-22T18:59:26.365Z,1.80
2023-03-22T19:02:09.849Z,1.77
2023-03-22T19:04:47.552Z,2.00
2023-03-22T19:07:35.646Z,2.20
2023-03-22T19:10:11.516Z,2.67
2023-03-22T19:12:43.581Z,2.40
2023-03-22T19:17:48.467Z,2.37
2023-03-22T19:20:21.917Z,1.83
2023-03-22T19:22:51.927Z,2.23
2023-03-22T19:25:22.075Z,2.70
2023-03-22T19:27:52.089Z,2.23
2023-03-22T19:30:22.145Z,2.40
2023-03-22T19:33:20.177Z,3.07
2023-03-22T19:35:46.109Z,3.17
2023-03-22T19:38:16.666Z,3.23
2023-03-22T19:41:33.778Z,3.23
2023-03-22T19:43:38.173Z,3.10
2023-03-22T19:46:08.866Z,2.90
2023-03-22T19:48:39.755Z,2.50
2023-03-22T19:51:13.590Z,2.83
2023-03-22T19:54:17.167Z,2.50
2023-03-22T19:56:35.133Z,2.37
2023-03-22T19:59:11.096Z,2.33
2023-03-22T20:01:41.779Z,1.70
2023-03-22T20:04:11.649Z,2.50
2023-03-22T20:06:54.880Z,2.47
2023-03-22T20:09:25.578Z,2.30
2023-03-22T20:11:55.484Z,2.17
2023-03-22T20:14:25.423Z,2.17
2023-03-22T20:17:04.491Z,2.43
2023-03-22T20:19:36.781Z,2.10
2023-03-22T20:22:09.538Z,2.33
2023-03-22T20:24:41.058Z,2.43
2023-03-22T20:27:12.157Z,2.37
2023-03-22T20:29:42.112Z,2.43
2023-03-22T20:32:12.076Z,2.10
2023-03-22T20:34:42.365Z,2.67
2023-03-22T20:37:14.842Z,2.53
2023-03-22T20:39:44.669Z,1.97
2023-03-22T20:42:14.476Z,2.40
2023-03-22T20:44:44.450Z,2.90
2023-03-22T20:47:15.665Z,3.53
2023-03-22T20:49:47.075Z,3.07
2023-03-22T20:52:19.490Z,3.90
2023-03-22T20:54:49.384Z,3.60
2023-03-22T20:57:19.397Z,3.20
2023-03-22T20:59:49.343Z,3.93
2023-03-22T21:02:19.448Z,2.87
2023-03-22T21:04:49.620Z,3.37
2023-03-22T21:07:22.389Z,2.80
2023-03-22T21:09:52.246Z,3.00
2023-03-22T21:12:22.142Z,3.73
2023-03-22T21:14:52.700Z,3.47
2023-03-22T21:17:22.862Z,3.13
2023-03-22T21:19:52.787Z,3.23
2023-03-22T21:22:27.189Z,2.43
2023-03-22T21:24:58.849Z,2.47
2023-03-22T21:27:30.692Z,2.70
2023-03-22T21:30:00.655Z,2.43
2023-03-22T21:32:30.588Z,2.70
2023-03-22T21:35:00.796Z,2.73
2023-03-22T21:37:34.138Z,2.43
2023-03-22T21:40:07.312Z,2.90
2023-03-22T21:42:46.706Z,3.43
2023-03-22T21:45:16.970Z,3.20
2023-03-22T21:47:53.450Z,3.13
2023-03-22T21:50:24.375Z,2.93
2023-03-22T21:52:56.938Z,2.87
2023-03-22T21:55:32.543Z,2.63
2023-03-22T21:58:03.607Z,2.13
2023-03-22T22:00:35.570Z,2.73
2023-03-22T22:03:05.708Z,2.87
2023-03-22T22:05:36.349Z,2.70
2023-03-22T22:08:09.360Z,3.20
2023-03-22T22:10:39.476Z,3.27
2023-03-22T22:13:09.505Z,3.20
2023-03-22T22:15:39.923Z,3.17
2023-03-22T22:18:15.036Z,3.40
2023-03-22T22:20:45.425Z,3.33
2023-03-22T22:23:20.285Z,3.10
2023-03-22T22:25:53.723Z,2.30
2023-03-22T22:28:23.667Z,3.37
2023-03-22T22:30:54.027Z,3.30
2023-03-22T22:33:24.076Z,3.47
2023-03-22T22:35:54.112Z,3.27
2023-03-22T22:38:26.937Z,3.63
2023-03-22T22:40:58.662Z,3.73
2023-03-22T22:43:28.687Z,2.60
2023-03-22T22:46:00.675Z,3.40
2023-03-22T22:48:30.858Z,3.03
2023-03-22T22:51:04.759Z,3.77
2023-03-22T22:53:38.512Z,3.97
2023-03-22T22:56:12.107Z,4.10
2023-03-22T22:58:44.020Z,3.90
2023-03-22T23:01:16.872Z,3.97
2023-03-22T23:03:47.156Z,3.10
2023-03-22T23:06:20.540Z,3.10
2023-03-22T23:08:55.544Z,3.00
2023-03-22T23:11:32.798Z,2.90
2023-03-22T23:14:06.277Z,2.57
2023-03-22T23:16:39.179Z,2.07
2023-03-22T23:19:09.814Z,2.60
2023-03-22T23:21:41.839Z,2.73
2023-03-22T23:24:14.961Z,2.63
2023-03-22T23:26:48.100Z,2.80
2023-03-22T23:29:18.903Z,2.90
2023-03-22T23:31:48.982Z,2.90
2023-03-22T23:34:21.329Z,1.90
2023-03-22T23:36:52.566Z,2.50
2023-03-22T23:39:26.766Z,2.00
2023-03-22T23:41:57.188Z,2.10
2023-03-22T23:44:27.504Z,2.33
2023-03-22T23:46:57.418Z,1.80
2023-03-22T23:49:27.381Z,2.47
2023-03-22T23:51:57.271Z,2.00
2023-03-22T23:54:29.800Z,2.60
2023-03-22T23:56:59.647Z,2.17
2023-03-22T23:59:30.426Z,2.00
